PWSweather.com
Personal Weather Stations
Station Observations
TURNER1
South Turner, Turner, ME 04282

South TurnerTurner, ME 04282

Lat: 44.193235, Lon: -70.264886

Elevation: 500

Station Type: Davis Vantage Pro

Latest ConditionsUpdated 10:30:02 AM EST Thursday, Nov 15, 2018
Currently Today's Max Today's Min Today's Average
Temperature 22.4°F-5.3°C 22.4°F-5.3°C 10.9°F-11.7°C 14.4°F-9.8°C
Dew Point 4.7°F-15.2°C 7.7°F-13.5°C 3.4°F-15.9°C 5.1°F-14.9°C
Winds Calm Calm 2.3 mph -3.7 kmh - - 0.2 mph 0.3 kmh
Wind Gusts -- 5.8 mph9.3 kmh - -
Humidity 46% 78% 46% 67%
Pressure 30.59 in1035.9 mb 30.61 in1036.6 mb 30.56 in1034.9 mb -
Hour Temp Dew Point Humidity Winds Wind Gusts Pressure Precip Precip Rate Daily Precip Total
10:30 AM 22.4°F-5.3°C 4.7°F-15.2°C 46% Calm Calm -- 30.59 in1035.9 mb - 0.00 in0.0 mm 0.00 in0.0 mm
10:00 AM 21.0°F-6.1°C 5.2°F-14.9°C 50% Calm Calm -- 30.59 in1035.9 mb - 0.00 in0.0 mm 0.00 in0.0 mm
09:30 AM 21.3°F-5.9°C 6.8°F-14.0°C 53% Calm Calm -- 30.61 in1036.6 mb - 0.00 in0.0 mm 0.00 in0.0 mm
09:00 AM 18.6°F-7.4°C 5.9°F-14.5°C 57% Calm Calm 1.2 mph1.9 kmh 30.61 in1036.6 mb - 0.00 in0.0 mm 0.00 in0.0 mm
08:30 AM 16.5°F-8.6°C 7.4°F-13.7°C 67% Calm Calm 1.2 mph1.9 kmh 30.61 in1036.6 mb - 0.00 in0.0 mm 0.00 in0.0 mm
08:00 AM 13.6°F-10.2°C 7.7°F-13.5°C 77% Calm Calm -- 30.60 in1036.2 mb - 0.00 in0.0 mm 0.00 in0.0 mm
07:30 AM 12.4°F-10.9°C 6.0°F-14.4°C 75% Calm Calm -- 30.61 in1036.6 mb - 0.00 in0.0 mm 0.00 in0.0 mm
07:00 AM 11.9°F-11.2°C 4.3°F-15.4°C 71% Calm Calm 2.3 mph3.7 kmh 30.60 in1036.2 mb - 0.00 in0.0 mm 0.00 in0.0 mm
06:30 AM 11.9°F-11.2°C 3.7°F-15.7°C 69% Calm Calm -- 30.59 in1035.9 mb - 0.00 in0.0 mm 0.00 in0.0 mm
06:00 AM 10.9°F-11.7°C 4.2°F-15.4°C 74% Calm Calm -- 30.59 in1035.9 mb - 0.00 in0.0 mm 0.00 in0.0 mm
05:30 AM 11.7°F-11.3°C 3.8°F-15.7°C 70% Calm Calm -- 30.60 in1036.2 mb - 0.00 in0.0 mm 0.00 in0.0 mm
05:00 AM 11.1°F-11.6°C 5.6°F-14.7°C 78% Calm Calm -- 30.57 in1035.2 mb - 0.00 in0.0 mm 0.00 in0.0 mm
04:30 AM 12.6°F-10.8°C 3.4°F-15.9°C 66% Calm Calm -- 30.57 in1035.2 mb - 0.00 in0.0 mm 0.00 in0.0 mm
04:00 AM 12.1°F-11.1°C 3.9°F-15.6°C 69% Calm Calm -- 30.57 in1035.2 mb - 0.00 in0.0 mm 0.00 in0.0 mm
03:30 AM 12.1°F-11.1°C 4.8°F-15.1°C 72% Calm Calm -- 30.59 in1035.9 mb - 0.00 in0.0 mm 0.00 in0.0 mm
03:00 AM 12.6°F-10.8°C 5.0°F-15.0°C 71% Calm Calm -- 30.57 in1035.2 mb - 0.00 in0.0 mm 0.00 in0.0 mm
02:30 AM 13.1°F-10.5°C 4.8°F-15.1°C 69% Calm Calm -- 30.58 in1035.6 mb - 0.00 in0.0 mm 0.00 in0.0 mm
02:00 AM 13.1°F-10.5°C 4.8°F-15.1°C 69% 1.2 mph WNW1.9 kmh WNW 3.5 mph5.6 kmh 30.57 in1035.2 mb - 0.00 in0.0 mm 0.00 in0.0 mm
01:30 AM 13.6°F-10.2°C 4.7°F-15.2°C 67% Calm Calm 2.3 mph3.7 kmh 30.57 in1035.2 mb - 0.00 in0.0 mm 0.00 in0.0 mm
01:00 AM 14.3°F-9.8°C 5.0°F-15.0°C 66% Calm Calm 1.2 mph1.9 kmh 30.57 in1035.2 mb - 0.00 in0.0 mm 0.00 in0.0 mm
12:30 AM 14.6°F-9.7°C 5.0°F-15.0°C 65% 2.3 mph WSW3.7 kmh WSW 4.6 mph7.4 kmh 30.57 in1035.2 mb - 0.00 in0.0 mm 0.00 in0.0 mm
12:00 AM 14.4°F-9.8°C 5.4°F-14.8°C 67% 1.2 mph WNW1.9 kmh WNW 5.8 mph9.3 kmh 30.56 in1034.9 mb - 0.00 in0.0 mm 0.00 in0.0 mm